createdAt,value
2023-04-19T00:01:33.930Z,9.81
2023-04-19T00:04:03.770Z,9.79
2023-04-19T00:06:32.006Z,9.94
2023-04-19T00:09:00.230Z,9.84
2023-04-19T00:11:28.362Z,9.89
2023-04-19T00:13:56.566Z,9.98
2023-04-19T00:16:24.789Z,10.01
2023-04-19T00:18:53.061Z,10.07
2023-04-19T00:21:21.300Z,10.12
2023-04-19T00:23:49.450Z,10.07
2023-04-19T00:26:17.584Z,10.02
2023-04-19T00:28:48.809Z,9.82
2023-04-19T00:31:17.231Z,9.85
2023-04-19T00:33:45.463Z,9.84
2023-04-19T00:36:13.730Z,9.80
2023-04-19T00:38:41.885Z,9.82
2023-04-19T00:41:11.599Z,9.88
2023-04-19T00:43:39.900Z,9.94
2023-04-19T00:46:08.057Z,9.97
2023-04-19T00:48:36.406Z,9.98
2023-04-19T00:51:04.849Z,10.05
2023-04-19T00:53:33.289Z,9.93
2023-04-19T00:56:01.579Z,9.78
2023-04-19T00:58:31.609Z,9.81
2023-04-19T01:01:00.560Z,10.06
2023-04-19T01:03:32.094Z,10.04
2023-04-19T01:06:00.325Z,9.96
2023-04-19T01:08:28.364Z,10.10
2023-04-19T01:10:56.516Z,10.13
2023-04-19T01:13:25.132Z,10.05
2023-04-19T01:15:53.246Z,10.06
2023-04-19T01:18:24.458Z,10.08
2023-04-19T01:20:52.928Z,10.08
2023-04-19T01:23:21.552Z,10.14
2023-04-19T01:25:50.722Z,10.13
2023-04-19T01:28:19.024Z,10.00
2023-04-19T01:30:51.309Z,9.94
2023-04-19T01:33:21.114Z,9.89
2023-04-19T01:35:49.539Z,9.94
2023-04-19T01:38:17.757Z,9.87
2023-04-19T01:40:46.175Z,9.77
2023-04-19T01:43:17.411Z,9.78
2023-04-19T01:45:46.171Z,9.70
2023-04-19T01:48:14.730Z,9.78
2023-04-19T01:50:42.824Z,9.59
2023-04-19T01:53:12.306Z,9.49
2023-04-19T01:55:40.607Z,9.48
2023-04-19T01:58:09.967Z,9.40
2023-04-19T02:00:38.137Z,9.31
2023-04-19T02:03:06.405Z,9.30
2023-04-19T02:05:34.827Z,9.54
2023-04-19T02:08:03.100Z,9.61
2023-04-19T02:10:32.228Z,9.62
2023-04-19T02:13:00.368Z,9.54
2023-04-19T02:15:29.332Z,9.51
2023-04-19T02:17:57.605Z,9.43
2023-04-19T02:20:25.926Z,9.51
2023-04-19T02:22:54.133Z,9.52
2023-04-19T02:25:22.230Z,9.51
2023-04-19T02:27:51.136Z,9.47
2023-04-19T02:30:19.431Z,9.56
2023-04-19T02:32:51.354Z,9.61
2023-04-19T02:35:19.646Z,9.74
2023-04-19T02:37:47.722Z,9.61
2023-04-19T02:40:16.209Z,9.62
2023-04-19T02:42:44.240Z,9.63
2023-04-19T02:45:12.516Z,9.61
2023-04-19T02:47:40.965Z,9.58
2023-04-19T02:50:09.692Z,9.50
2023-04-19T02:52:42.208Z,9.44
2023-04-19T02:55:10.539Z,9.63
2023-04-19T02:57:39.314Z,9.79
2023-04-19T03:00:09.272Z,9.70
2023-04-19T03:02:39.681Z,9.62
2023-04-19T03:05:08.953Z,9.36
2023-04-19T03:07:37.387Z,9.26
2023-04-19T03:10:06.233Z,9.24
2023-04-19T03:12:34.468Z,9.23
2023-04-19T03:15:02.704Z,9.18
2023-04-19T03:17:31.112Z,9.08
2023-04-19T03:19:59.398Z,9.09
2023-04-19T03:22:28.126Z,9.08
2023-04-19T03:24:56.904Z,9.06
2023-04-19T03:27:25.781Z,9.10
2023-04-19T03:29:58.356Z,9.06
2023-04-19T03:32:27.392Z,9.11
2023-04-19T03:34:55.528Z,9.17
2023-04-19T03:37:23.635Z,9.17
2023-04-19T03:39:51.785Z,9.20
2023-04-19T03:42:26.004Z,9.30
2023-04-19T03:45:16.054Z,9.41
2023-04-19T03:47:47.385Z,9.41
2023-04-19T03:50:15.984Z,9.43
2023-04-19T03:52:46.338Z,9.48
2023-04-19T03:55:14.662Z,9.39
2023-04-19T03:57:42.832Z,9.22
2023-04-19T04:00:17.848Z,9.28
2023-04-19T04:02:50.214Z,9.38
2023-04-19T04:05:18.723Z,9.57
2023-04-19T04:07:47.066Z,9.50
2023-04-19T04:10:15.796Z,9.55
2023-04-19T04:12:44.450Z,9.67
2023-04-19T04:15:15.597Z,9.59
2023-04-19T04:17:48.391Z,9.61
2023-04-19T04:20:16.706Z,9.72
2023-04-19T04:22:48.443Z,9.61
2023-04-19T04:25:20.555Z,9.67
2023-04-19T04:27:54.670Z,9.79
2023-04-19T04:30:24.809Z,9.85
2023-04-19T04:32:58.091Z,9.96
2023-04-19T04:35:29.126Z,9.98
2023-04-19T04:38:11.132Z,10.06
2023-04-19T04:40:43.941Z,10.25
2023-04-19T04:43:13.543Z,10.31
2023-04-19T04:45:44.626Z,10.39
2023-04-19T04:48:13.472Z,10.60
2023-04-19T04:50:41.854Z,10.76
2023-04-19T04:53:11.073Z,10.60
2023-04-19T04:55:42.853Z,10.49
2023-04-19T04:58:12.617Z,10.63
2023-04-19T05:00:51.663Z,10.49
2023-04-19T05:03:21.479Z,10.44
2023-04-19T05:05:54.900Z,10.39
2023-04-19T05:08:28.478Z,10.40
2023-04-19T05:11:00.820Z,10.15
2023-04-19T05:13:30.507Z,10.25
2023-04-19T05:16:00.517Z,10.75
2023-04-19T05:18:29.413Z,10.85
2023-04-19T05:20:58.598Z,11.19
2023-04-19T05:23:29.507Z,11.69
2023-04-19T05:25:58.665Z,11.53
2023-04-19T05:28:28.058Z,11.56
2023-04-19T05:31:09.383Z,11.38
2023-04-19T05:33:45.004Z,11.20
2023-04-19T05:36:13.124Z,11.25
2023-04-19T05:38:41.215Z,11.26
2023-04-19T05:41:09.333Z,11.19
2023-04-19T05:43:37.441Z,11.20
2023-04-19T05:46:06.377Z,11.12
2023-04-19T05:48:34.711Z,11.15
2023-04-19T05:51:11.228Z,11.29
2023-04-19T05:54:00.298Z,11.29
2023-04-19T05:56:28.669Z,10.92
2023-04-19T05:58:57.068Z,11.13
2023-04-19T06:01:25.273Z,11.36
2023-04-19T06:03:54.468Z,11.44
2023-04-19T06:06:23.925Z,11.40
2023-04-19T06:08:54.656Z,11.30
2023-04-19T06:11:26.950Z,11.27
2023-04-19T06:14:03.695Z,11.46
2023-04-19T06:16:32.716Z,11.25
2023-04-19T06:19:01.034Z,11.36
2023-04-19T06:21:33.057Z,11.38
2023-04-19T06:24:01.511Z,11.38
2023-04-19T06:26:29.856Z,11.55
2023-04-19T06:28:58.056Z,11.52
2023-04-19T06:31:26.191Z,11.34
2023-04-19T06:33:54.316Z,11.35
2023-04-19T06:36:22.466Z,11.35
2023-04-19T06:38:50.806Z,11.70
2023-04-19T06:41:19.598Z,11.91
2023-04-19T06:43:48.110Z,11.85
2023-04-19T06:46:16.549Z,11.89
2023-04-19T06:48:44.862Z,11.90
2023-04-19T06:51:12.991Z,12.04
2023-04-19T06:53:41.150Z,12.23
2023-04-19T06:56:10.395Z,12.08
2023-04-19T06:58:38.656Z,11.77
2023-04-19T07:01:07.682Z,11.82
2023-04-19T07:03:36.448Z,11.86
2023-04-19T07:06:04.987Z,11.89
2023-04-19T07:08:48.784Z,11.99
2023-04-19T07:11:20.370Z,11.95
2023-04-19T07:13:50.257Z,12.03
2023-04-19T07:16:18.549Z,12.20
2023-04-19T07:18:46.694Z,12.33
2023-04-19T07:21:14.957Z,12.37
2023-04-19T07:23:43.010Z,12.69
2023-04-19T07:26:11.363Z,13.30
2023-04-19T07:28:39.968Z,13.81
2023-04-19T07:31:08.047Z,14.45
2023-04-19T07:33:36.235Z,14.75
2023-04-19T07:36:04.371Z,15.03
2023-04-19T07:38:32.582Z,14.99
2023-04-19T07:41:00.718Z,14.63
2023-04-19T07:43:30.310Z,14.23
2023-04-19T07:45:58.444Z,14.00
2023-04-19T07:48:27.336Z,13.88
2023-04-19T07:50:55.648Z,14.11
2023-04-19T07:53:23.772Z,14.19
2023-04-19T07:55:51.833Z,14.39
2023-04-19T07:58:19.955Z,14.62
2023-04-19T08:00:48.408Z,14.75
2023-04-19T08:03:16.727Z,14.86
2023-04-19T08:05:45.845Z,14.77
2023-04-19T08:08:13.945Z,14.74
2023-04-19T08:10:42.395Z,14.85
2023-04-19T08:13:10.629Z,14.94
2023-04-19T08:16:18.073Z,14.96
2023-04-19T08:18:27.089Z,14.92
2023-04-19T08:20:56.696Z,15.01
2023-04-19T08:23:31.823Z,14.72
2023-04-19T08:26:06.235Z,14.75
2023-04-19T08:28:34.377Z,14.85
2023-04-19T08:31:06.008Z,14.71
2023-04-19T08:33:35.944Z,14.96
2023-04-19T08:36:05.378Z,15.28
2023-04-19T08:38:33.474Z,16.17
2023-04-19T08:41:01.654Z,17.06
2023-04-19T08:43:33.509Z,17.18
2023-04-19T08:46:01.718Z,17.52
2023-04-19T08:48:29.982Z,17.84
2023-04-19T08:51:05.024Z,18.26
2023-04-19T08:53:35.950Z,18.22
2023-04-19T08:56:17.406Z,18.45
2023-04-19T09:01:33.689Z,18.92
2023-04-19T09:04:16.990Z,18.66
2023-04-19T09:06:55.487Z,18.24
2023-04-19T09:11:59.491Z,16.98
2023-04-19T09:14:28.354Z,16.99
2023-04-19T09:17:17.384Z,17.05
2023-04-19T09:19:49.714Z,17.04
2023-04-19T09:22:18.763Z,17.10
2023-04-19T09:25:22.780Z,17.47
2023-04-19T09:27:36.585Z,18.21
2023-04-19T09:30:07.278Z,18.91
2023-04-19T09:32:48.013Z,19.51
2023-04-19T09:35:16.726Z,19.72
2023-04-19T09:38:05.786Z,19.67
2023-04-19T09:40:35.472Z,18.85
2023-04-19T09:45:42.624Z,19.11
2023-04-19T09:48:11.941Z,19.15
2023-04-19T09:50:59.712Z,18.85
2023-04-19T09:53:34.481Z,19.17
2023-04-19T09:56:04.296Z,19.48
2023-04-19T10:01:13.997Z,19.50
2023-04-19T10:03:46.381Z,19.49
2023-04-19T10:08:51.425Z,19.08
2023-04-19T10:11:22.076Z,19.12
2023-04-19T10:13:50.342Z,18.90
2023-04-19T10:16:20.279Z,18.98
2023-04-19T10:18:50.303Z,18.97
2023-04-19T10:21:19.268Z,19.18
2023-04-19T10:23:47.884Z,19.31
2023-04-19T10:26:16.237Z,19.06
2023-04-19T10:28:44.392Z,18.82
2023-04-19T10:31:16.336Z,18.60
2023-04-19T10:33:44.705Z,18.54
2023-04-19T10:36:14.531Z,18.42
2023-04-19T10:38:51.609Z,18.53
2023-04-19T10:41:19.857Z,18.63
2023-04-19T10:44:00.339Z,18.64
2023-04-19T10:46:29.720Z,18.93
2023-04-19T10:48:59.292Z,19.22
2023-04-19T10:51:28.136Z,19.31
2023-04-19T10:54:18.721Z,19.26
2023-04-19T10:57:04.808Z,18.62
2023-04-19T10:59:37.354Z,18.55
2023-04-19T11:02:28.269Z,18.52
2023-04-19T11:04:56.600Z,18.68
2023-04-19T11:07:24.842Z,18.72
2023-04-19T11:09:53.021Z,18.59
2023-04-19T11:12:23.010Z,18.62
2023-04-19T11:14:53.121Z,18.77
2023-04-19T11:17:28.450Z,19.11
2023-04-19T11:19:56.801Z,19.03
2023-04-19T11:23:00.352Z,19.00
2023-04-19T11:25:31.702Z,19.04
2023-04-19T11:27:59.824Z,18.84
2023-04-19T11:30:30.805Z,18.71
2023-04-19T11:32:59.320Z,18.71
2023-04-19T11:35:28.104Z,18.82
2023-04-19T11:37:56.813Z,19.05
2023-04-19T11:40:28.562Z,19.39
2023-04-19T11:43:01.084Z,19.42
2023-04-19T11:45:34.455Z,19.33
2023-04-19T11:48:04.849Z,18.96
2023-04-19T11:50:34.020Z,19.14
2023-04-19T11:53:24.216Z,19.22
2023-04-19T11:56:08.572Z,19.36
2023-04-19T11:58:45.195Z,19.35
2023-04-19T12:01:14.039Z,18.72
2023-04-19T12:03:50.523Z,18.58
2023-04-19T12:06:29.915Z,18.60
2023-04-19T12:08:58.040Z,18.80
2023-04-19T12:11:27.320Z,18.31
2023-04-19T12:14:12.271Z,18.27
2023-04-19T12:16:40.629Z,18.07
2023-04-19T12:19:17.670Z,18.12
2023-04-19T12:21:46.875Z,17.96
2023-04-19T12:24:15.715Z,18.19
2023-04-19T12:26:56.247Z,18.19
2023-04-19T12:29:24.872Z,18.18
2023-04-19T12:31:53.234Z,18.24
2023-04-19T12:34:21.556Z,18.16
2023-04-19T12:36:50.147Z,18.32
2023-04-19T12:39:18.834Z,18.44
2023-04-19T12:41:48.902Z,18.33
2023-04-19T12:44:17.087Z,18.15
2023-04-19T12:46:45.305Z,18.14
2023-04-19T12:49:13.540Z,17.90
2023-04-19T12:51:42.923Z,18.08
2023-04-19T12:54:11.176Z,18.08
2023-04-19T12:56:39.249Z,17.90
2023-04-19T12:59:07.348Z,17.97
2023-04-19T13:01:35.847Z,17.96
2023-04-19T13:04:05.392Z,17.87
2023-04-19T13:06:34.864Z,17.78
2023-04-19T13:09:11.495Z,17.99
2023-04-19T13:11:42.370Z,18.00
2023-04-19T13:14:10.646Z,18.05
2023-04-19T13:16:38.695Z,18.10
2023-04-19T13:19:06.980Z,17.93
2023-04-19T13:21:35.326Z,17.83
2023-04-19T13:24:03.530Z,17.63
2023-04-19T13:26:31.689Z,17.43
2023-04-19T13:29:00.314Z,17.34
2023-04-19T13:31:28.643Z,17.22
2023-04-19T13:33:57.166Z,17.14
2023-04-19T13:36:25.251Z,17.30
2023-04-19T13:38:53.434Z,17.28
2023-04-19T13:41:21.626Z,17.40
2023-04-19T13:43:49.717Z,17.34
2023-04-19T13:46:18.036Z,17.34
2023-04-19T13:48:46.368Z,17.16
2023-04-19T13:51:14.426Z,17.17
2023-04-19T13:53:42.591Z,17.21
2023-04-19T13:56:11.432Z,17.16
2023-04-19T13:58:39.578Z,17.05
2023-04-19T14:01:07.974Z,17.06
2023-04-19T14:03:36.898Z,17.26
2023-04-19T14:06:05.367Z,17.30
2023-04-19T14:08:33.837Z,17.07
2023-04-19T14:11:02.005Z,17.00
2023-04-19T14:13:30.308Z,16.91
2023-04-19T14:15:58.467Z,17.05
2023-04-19T14:18:26.981Z,17.11
2023-04-19T14:20:55.396Z,17.02
2023-04-19T14:23:23.391Z,17.04
2023-04-19T14:25:53.530Z,17.04
2023-04-19T14:28:22.412Z,16.97
2023-04-19T14:30:50.571Z,16.94
2023-04-19T14:33:18.860Z,16.87
2023-04-19T14:35:47.442Z,16.81
2023-04-19T14:38:16.121Z,16.78
2023-04-19T14:40:44.283Z,16.69
2023-04-19T14:43:15.134Z,16.54
2023-04-19T14:45:43.529Z,16.44
2023-04-19T14:48:12.065Z,16.28
2023-04-19T14:50:40.150Z,16.17
2023-04-19T14:53:08.792Z,16.23
2023-04-19T14:55:40.066Z,16.11
2023-04-19T14:58:09.069Z,16.00
2023-04-19T15:00:37.675Z,15.96
2023-04-19T15:03:06.078Z,15.94
2023-04-19T15:05:34.986Z,15.94
2023-04-19T15:08:03.213Z,15.80
2023-04-19T15:10:32.149Z,15.73
2023-04-19T15:13:00.435Z,15.79
2023-04-19T15:15:29.594Z,15.77
2023-04-19T15:17:58.005Z,15.59
2023-04-19T15:20:26.453Z,15.68
2023-04-19T15:22:54.521Z,15.36
2023-04-19T15:25:22.791Z,15.65
2023-04-19T15:27:50.901Z,15.75
2023-04-19T15:30:19.215Z,15.55
2023-04-19T15:32:47.474Z,15.62
2023-04-19T15:35:15.947Z,15.71
2023-04-19T15:37:46.455Z,15.62
2023-04-19T15:40:17.128Z,15.46
2023-04-19T15:42:46.491Z,15.30
2023-04-19T15:45:15.726Z,15.10
2023-04-19T15:47:44.004Z,14.99
2023-04-19T15:50:12.147Z,14.93
2023-04-19T15:52:41.478Z,15.04
2023-04-19T15:55:09.885Z,15.08
2023-04-19T15:57:38.324Z,15.29
2023-04-19T16:00:09.504Z,15.31
2023-04-19T16:02:41.172Z,15.04
2023-04-19T16:05:09.610Z,15.36
2023-04-19T16:07:38.554Z,15.11
2023-04-19T16:10:07.570Z,15.41
2023-04-19T16:12:36.447Z,15.51
2023-04-19T16:15:05.544Z,15.38
2023-04-19T16:17:36.134Z,15.37
2023-04-19T16:20:04.934Z,15.40
2023-04-19T16:22:33.223Z,15.39
2023-04-19T16:25:03.701Z,15.38
2023-04-19T16:27:31.962Z,15.43
2023-04-19T16:30:00.151Z,15.41
2023-04-19T16:32:28.492Z,15.28
2023-04-19T16:34:56.707Z,15.35
2023-04-19T16:37:25.786Z,15.21
2023-04-19T16:39:53.968Z,15.12
2023-04-19T16:42:22.227Z,15.12
2023-04-19T16:44:50.343Z,15.24
2023-04-19T16:47:18.462Z,15.25
2023-04-19T16:49:50.647Z,15.20
2023-04-19T16:52:19.202Z,15.15
2023-04-19T16:54:47.291Z,14.87
2023-04-19T16:57:16.533Z,14.66
2023-04-19T16:59:45.001Z,14.74
2023-04-19T17:02:13.211Z,14.90
2023-04-19T17:04:41.614Z,14.70
2023-04-19T17:07:09.968Z,14.75
2023-04-19T17:09:38.304Z,14.59
2023-04-19T17:12:07.160Z,14.86
2023-04-19T17:14:35.470Z,14.94
2023-04-19T17:17:03.777Z,14.55
2023-04-19T17:19:31.878Z,14.40
2023-04-19T17:22:05.770Z,14.65
2023-04-19T17:24:34.327Z,14.49
2023-04-19T17:27:02.693Z,14.39
2023-04-19T17:29:31.191Z,14.19
2023-04-19T17:32:00.332Z,14.01
2023-04-19T17:34:28.638Z,14.04
2023-04-19T17:36:56.828Z,14.11
2023-04-19T17:39:27.899Z,14.05
2023-04-19T17:41:56.387Z,14.08
2023-04-19T17:44:24.537Z,13.99
2023-04-19T17:46:52.748Z,14.23
2023-04-19T17:49:21.990Z,14.20
2023-04-19T17:51:53.274Z,14.08
2023-04-19T17:54:21.370Z,14.00
2023-04-19T17:56:49.501Z,13.72
2023-04-19T17:59:17.933Z,13.67
2023-04-19T18:01:46.265Z,13.62
2023-04-19T18:04:18.155Z,13.68
2023-04-19T18:06:46.981Z,13.82
2023-04-19T18:09:16.905Z,13.69
2023-04-19T18:11:45.219Z,13.64
2023-04-19T18:14:15.371Z,13.66
2023-04-19T18:16:43.655Z,13.59
2023-04-19T18:19:11.899Z,13.88
2023-04-19T18:21:40.103Z,13.97
2023-04-19T18:24:08.471Z,14.01
2023-04-19T18:26:41.464Z,14.05
2023-04-19T18:29:10.349Z,14.06
2023-04-19T18:31:38.565Z,14.14
2023-04-19T18:34:07.071Z,14.17
2023-04-19T18:36:35.294Z,13.99
2023-04-19T18:39:04.590Z,13.95
2023-04-19T18:41:33.636Z,13.94
2023-04-19T18:46:34.180Z,13.72
2023-04-19T18:49:02.340Z,13.61
2023-04-19T18:51:30.859Z,13.58
2023-04-19T18:53:58.925Z,13.77
2023-04-19T18:57:04.427Z,13.83
2023-04-19T18:59:16.005Z,13.81
2023-04-19T19:01:45.762Z,13.83
2023-04-19T19:04:42.849Z,13.82
2023-04-19T19:07:27.372Z,13.67
2023-04-19T19:10:06.365Z,13.60
2023-04-19T19:12:44.727Z,13.59
2023-04-19T19:15:13.801Z,13.50
2023-04-19T19:17:43.358Z,13.44
2023-04-19T19:20:12.108Z,13.07
2023-04-19T19:22:40.472Z,12.97
2023-04-19T19:25:10.718Z,12.92
2023-04-19T19:27:39.078Z,12.90
2023-04-19T19:30:08.374Z,12.98
2023-04-19T19:32:37.149Z,12.90
2023-04-19T19:35:08.536Z,13.02
2023-04-19T19:37:37.299Z,13.16
2023-04-19T19:40:06.771Z,13.34
2023-04-19T19:42:35.368Z,13.42
2023-04-19T19:45:04.282Z,13.42
2023-04-19T19:47:35.512Z,13.13
2023-04-19T19:50:50.542Z,13.20
2023-04-19T19:52:52.619Z,12.95
2023-04-19T19:55:20.815Z,12.87
2023-04-19T19:58:25.810Z,12.82
2023-04-19T20:00:46.293Z,12.81
2023-04-19T20:03:28.470Z,12.95
2023-04-19T20:08:43.983Z,12.94
2023-04-19T20:11:12.832Z,12.99
2023-04-19T20:13:41.221Z,12.80
2023-04-19T20:16:10.993Z,12.55
2023-04-19T20:18:39.256Z,12.38
2023-04-19T20:21:07.776Z,12.38
2023-04-19T20:23:39.941Z,12.28
2023-04-19T20:26:08.395Z,12.15
2023-04-19T20:28:36.674Z,11.90
2023-04-19T20:31:05.053Z,11.92
2023-04-19T20:33:34.059Z,12.01
2023-04-19T20:36:04.408Z,12.10
2023-04-19T20:38:34.636Z,11.99
2023-04-19T20:41:03.294Z,12.00
2023-04-19T20:43:32.626Z,11.79
2023-04-19T20:46:00.970Z,11.76
2023-04-19T20:48:29.471Z,11.83
2023-04-19T20:50:57.776Z,11.84
2023-04-19T20:53:26.210Z,11.78
2023-04-19T20:55:54.357Z,11.77
2023-04-19T20:58:22.977Z,11.73
2023-04-19T21:00:51.223Z,11.75
2023-04-19T21:03:21.146Z,11.67
2023-04-19T21:05:49.412Z,11.67
2023-04-19T21:08:19.180Z,11.56
2023-04-19T21:10:47.325Z,11.56
2023-04-19T21:13:15.827Z,11.40
2023-04-19T21:15:44.019Z,11.18
2023-04-19T21:18:12.178Z,11.27
2023-04-19T21:20:40.688Z,11.25
2023-04-19T21:23:08.894Z,11.15
2023-04-19T21:25:37.345Z,11.18
2023-04-19T21:28:05.690Z,11.12
2023-04-19T21:30:33.817Z,11.20
2023-04-19T21:33:01.951Z,11.07
2023-04-19T21:35:30.175Z,11.05
2023-04-19T21:37:58.240Z,11.05
2023-04-19T21:40:26.331Z,11.03
2023-04-19T21:42:54.628Z,11.12
2023-04-19T21:45:22.779Z,11.05
2023-04-19T21:47:52.192Z,11.07
2023-04-19T21:50:20.703Z,11.03
2023-04-19T21:52:48.830Z,10.94
2023-04-19T21:55:16.923Z,10.82
2023-04-19T21:57:45.040Z,10.85
2023-04-19T22:00:13.960Z,10.87
2023-04-19T22:02:42.554Z,10.70
2023-04-19T22:05:10.923Z,10.75
2023-04-19T22:07:40.385Z,10.83
2023-04-19T22:10:09.525Z,10.71
2023-04-19T22:12:47.984Z,10.59
2023-04-19T22:15:25.972Z,10.53
2023-04-19T22:17:54.330Z,10.46
2023-04-19T22:20:23.918Z,10.45
2023-04-19T22:22:52.000Z,10.39
2023-04-19T22:25:20.345Z,10.34
2023-04-19T22:27:48.990Z,10.34
2023-04-19T22:30:16.990Z,10.31
2023-04-19T22:32:45.168Z,10.28
2023-04-19T22:35:13.302Z,10.17
2023-04-19T22:37:41.776Z,9.99
2023-04-19T22:40:10.362Z,10.00
2023-04-19T22:42:38.600Z,9.90
2023-04-19T22:45:08.217Z,9.89
2023-04-19T22:47:37.513Z,9.94
2023-04-19T22:50:07.606Z,9.99
2023-04-19T22:52:35.866Z,10.10
2023-04-19T22:55:04.186Z,10.15
2023-04-19T22:57:32.492Z,10.07
2023-04-19T23:00:00.551Z,10.08
2023-04-19T23:02:28.870Z,10.11
2023-04-19T23:04:58.830Z,10.14
2023-04-19T23:07:28.979Z,10.10
2023-04-19T23:09:57.238Z,10.29
2023-04-19T23:12:25.359Z,10.45
2023-04-19T23:14:53.902Z,10.38
2023-04-19T23:17:21.890Z,10.32
2023-04-19T23:19:49.989Z,10.27
2023-04-19T23:22:18.107Z,10.20
2023-04-19T23:24:46.177Z,10.09
2023-04-19T23:27:14.368Z,10.00
2023-04-19T23:29:42.522Z,9.80
2023-04-19T23:32:10.582Z,9.72
2023-04-19T23:34:38.697Z,9.51
2023-04-19T23:37:06.798Z,9.41
2023-04-19T23:39:35.467Z,9.23
2023-04-19T23:42:03.853Z,9.19
2023-04-19T23:44:32.466Z,9.17
2023-04-19T23:47:02.652Z,9.09
2023-04-19T23:49:31.502Z,9.03
2023-04-19T23:51:59.673Z,9.03
2023-04-19T23:54:28.112Z,9.03
2023-04-19T23:56:57.819Z,9.07
2023-04-19T23:59:27.009Z,9.12
